Time;durP1;ratioP1;P1;durP2;ratioP2;P2;SDS_P1;SDS_P2;PMS_P1;PMS_P2;Temp;Humidity;BMP_temperature;BMP_pressure;BME280_temperature;BME280_humidity;BME280_pressure;Samples;Min_cycle;Max_cycle;Signal;HPM_P1;HPM_P2
2022/08/05 04:02:29;;;;;;;7.15;3.95;;;21.40;94.10;;;;;;5068619;23;20051;-73
2022/08/05 04:04:57;;;;;;;8.93;3.97;;;21.50;94.00;;;;;;4976400;28;20071;-73
2022/08/05 04:07:23;;;;;;;4.65;3.97;;;21.50;94.00;;;;;;4976835;28;20035;-73
2022/08/05 04:09:49;;;;;;;7.68;4.28;;;21.50;94.10;;;;;;4976536;28;20041;-73
2022/08/05 04:12:15;;;;;;;6.65;3.90;;;21.50;94.00;;;;;;4976722;28;20070;-73
2022/08/05 04:14:41;;;;;;;4.07;3.67;;;21.50;94.00;;;;;;4977018;28;20043;-74
2022/08/05 04:17:08;;;;;;;7.40;3.70;;;21.50;94.00;;;;;;4976662;28;20109;-74
2022/08/05 04:19:45;;;;;;;9.55;3.83;;;21.50;94.20;;;;;;4975136;28;20035;-74
2022/08/05 04:22:11;;;;;;;6.85;3.75;;;21.50;94.10;;;;;;4976274;28;20564;-74
2022/08/05 04:24:41;;;;;;;6.40;3.80;;;21.60;94.10;;;;;;4976246;28;20058;-74
2022/08/05 04:27:07;;;;;;;6.15;3.58;;;21.70;94.00;;;;;;4975022;28;20174;-74
2022/08/05 04:29:33;;;;;;;7.55;4.10;;;21.70;94.10;;;;;;4976281;28;20102;-73
2022/08/05 04:31:58;;;;;;;7.28;4.10;;;21.70;93.80;;;;;;4976108;28;20043;-74
2022/08/05 04:34:24;;;;;;;9.50;4.00;;;21.80;93.70;;;;;;4976139;28;20035;-73
2022/08/05 04:36:50;;;;;;;5.13;3.10;;;21.80;93.60;;;;;;4976329;28;20035;-74
2022/08/05 04:39:19;;;;;;;7.35;3.22;;;22.00;93.20;;;;;;4976199;28;20031;-73
2022/08/05 04:41:45;;;;;;;7.13;3.22;;;22.20;93.20;;;;;;4976170;28;20039;-74
2022/08/05 04:44:11;;;;;;;10.02;3.05;;;22.30;93.10;;;;;;4976027;28;20050;-74
2022/08/05 04:46:37;;;;;;;6.65;3.58;;;22.40;93.30;;;;;;4976184;28;20031;-74
2022/08/05 04:49:04;;;;;;;3.63;3.17;;;22.50;93.10;;;;;;4975940;28;20042;-74
2022/08/05 04:51:30;;;;;;;8.30;3.47;;;22.60;93.10;;;;;;4976095;28;20500;-74
2022/08/05 04:53:56;;;;;;;8.05;3.45;;;22.80;92.90;;;;;;4976051;28;20035;-72
2022/08/05 04:56:21;;;;;;;7.70;3.67;;;23.00;92.80;;;;;;4976069;28;20036;-73
2022/08/05 04:58:47;;;;;;;9.23;3.58;;;23.00;92.70;;;;;;4975956;28;20038;-74
2022/08/05 05:01:12;;;;;;;10.57;4.05;;;23.00;92.40;;;;;;4975688;28;20050;-73
2022/08/05 05:03:38;;;;;;;6.07;3.70;;;23.20;92.60;;;;;;4976113;28;20039;-74
2022/08/05 05:06:04;;;;;;;10.10;3.97;;;23.30;92.40;;;;;;4975834;28;20063;-74
2022/08/05 05:08:29;;;;;;;6.53;3.75;;;23.40;92.30;;;;;;4975928;28;20038;-74
2022/08/05 05:10:55;;;;;;;11.25;4.10;;;23.40;92.30;;;;;;4974986;28;20493;-74
2022/08/05 05:13:20;;;;;;;7.07;3.40;;;23.40;92.90;;;;;;4974687;28;20564;-74
2022/08/05 05:15:46;;;;;;;5.10;3.90;;;23.50;92.40;;;;;;4973815;28;20035;-73
2022/08/05 05:18:16;;;;;;;9.57;3.88;;;23.70;92.50;;;;;;4972427;28;20035;-72
2022/08/05 05:20:42;;;;;;;12.13;4.35;;;23.70;92.40;;;;;;4969212;28;20035;-74
2022/08/05 05:23:08;;;;;;;12.55;3.80;;;23.90;92.40;;;;;;4969593;28;20046;-73
2022/08/05 05:25:34;;;;;;;8.35;4.10;;;24.10;92.20;;;;;;4965042;28;20036;-74
2022/08/05 05:28:00;;;;;;;6.75;3.70;;;24.30;92.00;;;;;;4964150;28;20035;-74
2022/08/05 05:30:26;;;;;;;12.25;4.60;;;24.40;91.50;;;;;;4966534;28;20067;-75
2022/08/05 05:32:51;;;;;;;8.80;4.07;;;24.60;91.30;;;;;;4963598;28;20052;-75
2022/08/05 05:35:17;;;;;;;6.93;3.50;;;24.60;91.20;;;;;;4959582;28;20398;-75
2022/08/05 05:37:50;;;;;;;7.13;4.20;;;24.70;91.30;;;;;;4968864;28;20066;-75
2022/08/05 05:40:21;;;;;;;9.40;3.92;;;24.90;90.90;;;;;;4956210;28;20561;-75
2022/08/05 05:42:48;;;;;;;6.18;3.80;;;24.90;90.70;;;;;;4954749;28;20044;-75
2022/08/05 05:45:13;;;;;;;9.77;3.65;;;24.90;90.40;;;;;;4955742;28;20039;-75
2022/08/05 05:47:40;;;;;;;9.50;3.88;;;24.90;90.40;;;;;;4956136;28;20035;-75
2022/08/05 05:50:07;;;;;;;8.23;4.47;;;24.90;90.40;;;;;;4956127;28;20034;-75
2022/08/05 05:52:32;;;;;;;6.78;4.05;;;25.00;90.10;;;;;;4955817;28;20465;-75
2022/08/05 05:55:03;;;;;;;8.68;4.35;;;25.20;89.90;;;;;;4954196;28;20031;-72
2022/08/05 05:57:29;;;;;;;6.70;3.88;;;25.30;89.60;;;;;;4955771;28;20042;-75
2022/08/05 05:59:54;;;;;;;9.60;3.47;;;25.50;89.20;;;;;;4955845;28;20054;-72
2022/08/05 06:02:20;;;;;;;6.22;3.33;;;25.80;87.90;;;;;;4958872;28;20047;-73
2022/08/05 06:04:45;;;;;;;6.03;3.33;;;25.90;87.10;;;;;;4959344;28;20389;-73
2022/08/05 06:07:11;;;;;;;8.32;3.30;;;26.00;86.40;;;;;;4957749;28;20038;-73
2022/08/05 06:09:36;;;;;;;4.03;2.90;;;26.10;85.60;;;;;;4958560;28;20406;-73
2022/08/05 06:12:03;;;;;;;5.68;3.00;;;26.00;85.40;;;;;;4958982;28;20044;-73
2022/08/05 06:14:32;;;;;;;5.10;3.30;;;25.90;86.90;;;;;;4958647;28;20035;-78
2022/08/05 06:16:57;;;;;;;4.30;3.17;;;25.80;86.60;;;;;;4958368;28;20393;-74
2022/08/05 06:19:23;;;;;;;4.35;3.10;;;25.70;86.70;;;;;;4959312;28;20036;-73
2022/08/05 06:21:49;;;;;;;6.68;3.22;;;25.60;86.60;;;;;;4958903;28;20043;-73
2022/08/05 06:24:14;;;;;;;5.15;3.00;;;25.60;86.60;;;;;;4958477;28;20512;-73
2022/08/05 06:26:40;;;;;;;4.57;3.00;;;25.60;86.90;;;;;;4959250;28;20044;-73
2022/08/05 06:29:06;;;;;;;6.15;2.92;;;25.80;87.50;;;;;;4967743;28;20035;-73
2022/08/05 06:31:31;;;;;;;4.70;3.10;;;25.70;86.90;;;;;;4966655;28;20044;-73
2022/08/05 06:33:57;;;;;;;7.13;2.97;;;26.00;86.40;;;;;;4969731;28;20046;-73
2022/08/05 06:36:23;;;;;;;3.95;2.95;;;26.10;85.70;;;;;;4978163;28;20043;-73
2022/08/05 06:38:52;;;;;;;6.25;3.25;;;26.30;83.50;;;;;;4977884;28;20033;-73
2022/08/05 06:41:18;;;;;;;7.20;3.08;;;26.40;84.10;;;;;;4974996;28;20497;-72
2022/08/05 06:43:44;;;;;;;5.15;2.92;;;26.50;83.90;;;;;;4974901;28;20129;-72
2022/08/05 06:46:09;;;;;;;5.68;2.95;;;26.60;83.20;;;;;;4973613;28;20043;-74
2022/08/05 06:48:35;;;;;;;5.72;3.30;;;26.60;81.90;;;;;;4975452;28;20047;-74
2022/08/05 06:51:01;;;;;;;3.15;2.85;;;26.60;81.90;;;;;;4973706;28;20091;-73
2022/08/05 06:53:27;;;;;;;3.78;2.92;;;26.60;81.70;;;;;;4975169;28;20532;-74
2022/08/05 06:55:53;;;;;;;4.90;2.90;;;26.60;81.70;;;;;;4975863;28;20086;-73
2022/08/05 06:58:18;;;;;;;4.00;3.00;;;26.60;81.70;;;;;;4977463;28;20035;-73
2022/08/05 07:00:44;;;;;;;5.63;3.13;;;26.50;82.10;;;;;;4976844;28;20046;-74
2022/08/05 07:03:09;;;;;;;6.35;2.95;;;26.50;81.70;;;;;;4977382;28;20043;-73
2022/08/05 07:05:35;;;;;;;6.32;2.80;;;26.60;81.40;;;;;;4976735;28;20077;-73
2022/08/05 07:08:01;;;;;;;5.47;3.30;;;26.40;82.00;;;;;;4975919;28;20397;-73
2022/08/05 07:10:26;;;;;;;6.15;2.90;;;26.30;83.10;;;;;;4976107;28;20039;-73
2022/08/05 07:18:20;;;;;;;7.10;3.40;;;25.40;87.80;;;;;;4974426;28;20094;-73
2022/08/05 07:20:45;;;;;;;13.75;4.25;;;25.10;90.10;;;;;;4976265;28;20701;-74
2022/08/05 07:23:11;;;;;;;13.55;5.05;;;24.70;96.00;;;;;;4976183;28;20038;-73
2022/08/05 07:25:36;;;;;;;8.25;4.28;;;23.90;99.90;;;;;;4977316;28;20041;-73
2022/08/05 07:28:02;;;;;;;9.95;4.97;;;23.10;99.90;;;;;;4976343;28;20035;-73
2022/08/05 07:30:31;;;;;;;9.35;4.20;;;22.60;99.90;;;;;;4977343;28;20042;-72
2022/08/05 07:32:57;;;;;;;10.40;5.45;;;22.30;99.90;;;;;;4977237;28;20034;-71
2022/08/05 07:35:22;;;;;;;9.80;5.78;;;22.20;99.90;;;;;;4977041;28;20038;-72
2022/08/05 07:37:48;;;;;;;5.97;5.10;;;22.30;99.90;;;;;;4977547;28;20027;-72
2022/08/05 07:40:13;;;;;;;8.75;5.20;;;22.50;99.90;;;;;;4976861;28;20047;-72
2022/08/05 07:42:39;;;;;;;6.43;4.43;;;22.80;99.90;;;;;;4977410;28;20036;-79
2022/08/05 07:45:05;;;;;;;9.18;5.05;;;23.00;99.90;;;;;;4977125;28;20102;-73
2022/08/05 07:47:30;;;;;;;9.45;5.32;;;23.00;99.90;;;;;;4975652;28;20031;-72
2022/08/05 07:49:56;;;;;;;8.07;5.90;;;23.20;99.90;;;;;;4977087;28;20477;-72
2022/08/05 07:52:22;;;;;;;5.65;4.68;;;23.40;99.90;;;;;;4977327;28;20058;-72
2022/08/05 07:54:47;;;;;;;5.45;4.32;;;23.60;99.90;;;;;;4978418;28;20054;-72
2022/08/05 07:57:13;;;;;;;5.25;4.20;;;23.70;99.90;;;;;;4988267;28;20062;-72
2022/08/05 07:59:39;;;;;;;4.65;3.72;;;23.50;99.90;;;;;;4996186;28;20035;-71
2022/08/05 08:02:06;;;;;;;4.82;4.13;;;23.20;99.90;;;;;;4995398;28;20078;-72
2022/08/05 08:04:31;;;;;;;5.32;4.18;;;23.10;99.90;;;;;;4996124;28;20033;-77
2022/08/05 08:06:59;;;;;;;5.10;4.60;;;23.30;99.90;;;;;;4996045;28;20041;-77
2022/08/05 08:09:25;;;;;;;7.75;4.57;;;23.50;99.90;;;;;;4990050;28;20078;-74
2022/08/05 08:11:51;;;;;;;6.65;4.47;;;23.60;99.90;;;;;;4995319;28;20850;-76
2022/08/05 08:14:16;;;;;;;5.60;4.57;;;23.80;99.90;;;;;;4996013;28;20031;-81
2022/08/05 08:16:42;;;;;;;6.80;4.18;;;24.20;99.90;;;;;;4997710;28;20026;-82
2022/08/05 08:19:07;;;;;;;6.82;4.45;;;24.10;99.90;;;;;;4999562;28;20054;-81
2022/08/05 08:21:33;;;;;;;4.25;3.70;;;24.30;99.90;;;;;;4998415;28;20114;-80
2022/08/05 08:23:59;;;;;;;6.00;4.28;;;24.40;99.90;;;;;;4997900;28;20114;-80
2022/08/05 08:26:24;;;;;;;5.82;4.35;;;24.50;99.90;;;;;;4997170;28;20085;-77
2022/08/05 08:28:50;;;;;;;5.28;3.75;;;24.70;99.90;;;;;;4997990;28;20121;-80
2022/08/05 08:31:17;;;;;;;5.10;3.47;;;25.00;99.90;;;;;;4997197;28;20067;-80
2022/08/05 08:33:43;;;;;;;5.40;3.60;;;25.20;99.90;;;;;;4995741;28;20068;-77
2022/08/05 08:36:09;;;;;;;4.78;3.47;;;25.50;99.90;;;;;;4996142;28;20500;-80
2022/08/05 08:38:34;;;;;;;4.10;3.30;;;26.00;99.90;;;;;;4999117;28;20033;-81
2022/08/05 08:41:05;;;;;;;5.22;3.17;;;26.30;99.90;;;;;;4996493;28;20130;-77
2022/08/05 08:43:32;;;;;;;4.07;3.40;;;26.40;99.90;;;;;;4997237;28;20034;-81
2022/08/05 08:46:01;;;;;;;3.72;3.42;;;26.60;99.90;;;;;;4997938;28;20023;-80
2022/08/05 08:48:29;;;;;;;3.42;3.00;;;26.40;99.90;;;;;;4975907;28;20097;-79
2022/08/05 08:50:55;;;;;;;4.55;3.17;;;26.20;99.90;;;;;;4984576;28;20465;-79
2022/08/05 08:53:23;;;;;;;7.35;3.65;;;26.40;99.90;;;;;;4992543;28;20055;-78
2022/08/05 08:55:49;;;;;;;5.07;3.35;;;26.70;99.00;;;;;;4963347;28;20505;-76
2022/08/05 08:58:16;;;;;;;3.95;3.30;;;26.70;99.90;;;;;;4955744;28;20594;-76
2022/08/05 09:00:41;;;;;;;3.50;2.90;;;26.90;98.40;;;;;;4963660;28;20077;-76
2022/08/05 09:03:12;;;;;;;5.35;3.28;;;27.00;96.90;;;;;;4976119;28;20159;-76
2022/08/05 09:05:38;;;;;;;4.28;2.92;;;26.90;96.30;;;;;;4974564;28;20039;-76
2022/08/05 09:08:04;;;;;;;3.88;2.90;;;27.00;96.70;;;;;;4975873;28;20039;-79
2022/08/05 09:10:29;;;;;;;7.03;3.20;;;27.00;97.10;;;;;;4975504;28;20055;-76
2022/08/05 09:12:56;;;;;;;4.93;3.00;;;27.30;97.30;;;;;;4956279;28;20043;-76
2022/08/05 09:15:22;;;;;;;5.53;2.90;;;27.40;96.50;;;;;;4971235;28;20027;-78
2022/08/05 09:17:48;;;;;;;3.63;2.88;;;27.60;94.90;;;;;;4957397;28;20089;-76
2022/08/05 09:20:13;;;;;;;6.15;2.75;;;27.30;94.00;;;;;;4956669;28;20031;-76
2022/08/05 09:23:09;;;;;;;3.15;2.60;;;27.40;94.70;;;;;;4957841;28;20036;-76
2022/08/05 09:25:37;;;;;;;3.80;3.00;;;27.60;92.20;;;;;;4957015;28;20059;-76
2022/08/05 09:28:12;;;;;;;5.35;2.65;;;28.00;91.00;;;;;;4964442;28;20063;-77
2022/08/05 09:30:41;;;;;;;6.20;2.38;;;28.60;89.20;;;;;;4954295;28;20123;-76
2022/08/05 09:33:07;;;;;;;4.55;2.90;;;29.00;85.90;;;;;;4963689;28;20043;-76
2022/08/05 09:35:33;;;;;;;5.30;2.60;;;28.90;87.30;;;;;;4963548;28;20505;-75
2022/08/05 09:37:59;;;;;;;3.63;2.80;;;28.80;86.20;;;;;;4954636;28;20036;-76
2022/08/05 09:40:38;;;;;;;4.07;2.60;;;29.00;83.90;;;;;;4957254;28;20082;-76
2022/08/05 09:43:09;;;;;;;6.55;2.42;;;29.20;80.70;;;;;;4963571;28;20459;-76
2022/08/05 09:45:39;;;;;;;4.40;2.50;;;29.50;81.00;;;;;;4955934;28;20027;-76
2022/08/05 09:48:28;;;;;;;4.93;2.58;;;29.80;81.00;;;;;;4956393;28;20039;-76
2022/08/05 09:50:57;;;;;;;2.75;2.53;;;30.10;81.10;;;;;;4955886;28;20039;-76
2022/08/05 09:53:23;;;;;;;5.15;2.38;;;30.70;78.60;;;;;;4971051;28;20095;-76
2022/08/05 09:55:55;;;;;;;6.82;2.83;;;30.70;79.40;;;;;;4968305;28;20039;-76
2022/08/05 09:58:21;;;;;;;6.13;2.90;;;30.80;76.40;;;;;;4970405;28;20533;-76
2022/08/05 10:01:00;;;;;;;7.25;2.78;;;30.50;77.10;;;;;;4988483;28;20043;-77
2022/08/05 10:03:26;;;;;;;5.60;2.60;;;30.90;74.70;;;;;;4994893;28;20452;-76
2022/08/05 10:06:09;;;;;;;5.85;2.65;;;30.70;75.10;;;;;;4981665;28;20040;-77
2022/08/05 10:08:36;;;;;;;5.10;2.65;;;31.00;74.40;;;;;;4963004;28;20066;-77
2022/08/05 10:11:04;;;;;;;5.32;2.60;;;30.90;75.30;;;;;;4971915;28;20035;-77
2022/08/05 10:13:32;;;;;;;7.38;2.60;;;31.00;74.60;;;;;;4990015;23;20137;-75
2022/08/05 10:15:59;;;;;;;4.30;2.60;;;31.20;72.60;;;;;;4948675;28;20131;-77
2022/08/05 10:18:26;;;;;;;3.25;2.60;;;31.10;76.40;;;;;;4951704;28;20040;-74
2022/08/05 10:21:04;;;;;;;4.13;2.60;;;31.30;72.10;;;;;;4954942;28;20067;-74
2022/08/05 10:23:33;;;;;;;5.55;2.85;;;31.40;72.00;;;;;;4954322;28;20046;-74
2022/08/05 10:26:05;;;;;;;5.63;2.83;;;31.70;71.80;;;;;;4935258;29;20127;-75
2022/08/05 10:28:32;;;;;;;3.67;2.65;;;31.80;70.80;;;;;;4936808;28;20036;-75
2022/08/05 10:30:58;;;;;;;6.15;2.50;;;32.10;69.60;;;;;;4946112;28;20453;-75
2022/08/05 10:33:27;;;;;;;6.03;2.60;;;32.30;68.10;;;;;;4956309;28;20497;-75
2022/08/05 10:35:54;;;;;;;5.22;2.80;;;32.40;67.80;;;;;;4952303;28;20060;-75
2022/08/05 10:38:21;;;;;;;5.57;2.72;;;32.40;67.30;;;;;;4946310;28;20039;-74
2022/08/05 10:40:53;;;;;;;2.97;2.47;;;32.30;68.20;;;;;;4945400;28;20064;-80
2022/08/05 10:43:40;;;;;;;4.85;2.38;;;32.40;66.40;;;;;;4939260;28;20032;-75
2022/08/05 10:46:07;;;;;;;3.55;2.47;;;32.70;67.30;;;;;;4957538;28;20099;-76
2022/08/05 10:48:37;;;;;;;4.00;2.90;;;32.90;65.50;;;;;;4965296;28;20130;-75
2022/08/05 10:51:04;;;;;;;3.53;2.47;;;32.90;65.30;;;;;;4977050;28;20031;-73
2022/08/05 10:53:59;;;;;;;8.98;2.60;;;32.70;65.20;;;;;;4956061;28;20043;-75
2022/08/05 10:56:27;;;;;;;5.28;2.30;;;32.60;64.60;;;;;;4958715;28;20047;-74
2022/08/05 10:58:53;;;;;;;3.60;2.40;;;32.60;65.40;;;;;;4958513;28;20122;-79
2022/08/05 11:01:29;;;;;;;4.45;2.40;;;32.70;65.20;;;;;;4956610;28;20191;-74
2022/08/05 11:03:59;;;;;;;5.93;2.45;;;33.10;65.00;;;;;;4949384;28;20091;-73
2022/08/05 11:06:25;;;;;;;2.90;2.60;;;33.60;63.20;;;;;;4957428;28;20036;-73
2022/08/05 11:09:20;;;;;;;3.35;2.50;;;33.60;62.30;;;;;;4958506;28;20776;-76
2022/08/05 11:11:49;;;;;;;6.47;2.65;;;33.80;61.10;;;;;;4957875;28;20131;-75
2022/08/05 11:14:22;;;;;;;5.63;2.00;;;33.90;59.40;;;;;;4957320;28;20035;-74
2022/08/05 11:17:25;;;;;;;4.00;2.22;;;34.00;60.00;;;;;;4958895;28;20053;-73
2022/08/05 11:19:52;;;;;;;4.68;2.33;;;34.30;60.70;;;;;;4953447;28;20035;-74
2022/08/05 11:22:41;;;;;;;5.45;2.38;;;34.70;59.70;;;;;;4957614;28;20107;-73
2022/08/05 11:25:32;;;;;;;3.40;2.03;;;35.10;58.00;;;;;;4956382;28;20032;-74
2022/08/05 11:28:24;;;;;;;1.77;1.67;;;35.20;56.70;;;;;;4948232;28;20507;-77
2022/08/05 11:30:56;;;;;;;3.78;1.83;;;34.60;52.70;;;;;;4954937;28;20075;-75
2022/08/05 11:33:32;;;;;;;1.90;1.63;;;34.60;53.50;;;;;;4958155;28;20482;-74
2022/08/05 11:36:09;;;;;;;2.50;1.80;;;34.70;53.30;;;;;;4956012;28;20043;-74
2022/08/05 11:38:40;;;;;;;2.90;1.63;;;35.00;53.40;;;;;;4958208;28;20071;-73
2022/08/05 11:41:15;;;;;;;4.47;1.63;;;35.10;52.70;;;;;;4956368;28;20490;-74
2022/08/05 11:43:53;;;;;;;2.20;1.95;;;35.10;52.90;;;;;;4957431;28;20036;-74
2022/08/05 11:46:30;;;;;;;2.80;1.90;;;35.20;52.80;;;;;;4956112;28;20047;-73
2022/08/05 11:48:57;;;;;;;2.42;1.70;;;35.00;52.00;;;;;;4938535;29;20068;-74
2022/08/05 11:51:25;;;;;;;2.17;1.60;;;35.20;52.60;;;;;;4955890;28;20115;-74
2022/08/05 11:53:52;;;;;;;1.90;1.80;;;35.50;52.40;;;;;;4951526;28;20036;-74
2022/08/05 11:56:19;;;;;;;1.90;1.80;;;35.60;53.20;;;;;;4954161;28;20514;-74
2022/08/05 11:58:46;;;;;;;3.65;1.92;;;35.50;51.20;;;;;;4939222;28;20040;-75
2022/08/05 12:01:17;;;;;;;3.67;1.75;;;35.10;51.90;;;;;;4956392;28;20054;-75
2022/08/05 12:03:44;;;;;;;1.67;1.58;;;35.30;52.90;;;;;;4956722;28;20059;-74
2022/08/05 12:06:11;;;;;;;1.80;1.60;;;35.40;51.40;;;;;;4957564;28;20035;-74
2022/08/05 12:08:44;;;;;;;2.63;1.80;;;35.30;51.50;;;;;;4957782;28;20394;-74
2022/08/05 12:11:15;;;;;;;2.55;1.73;;;34.90;52.40;;;;;;4957709;28;20035;-75
2022/08/05 12:13:59;;;;;;;3.30;1.92;;;34.70;53.10;;;;;;4957024;28;20054;-75
2022/08/05 12:16:31;;;;;;;2.17;1.80;;;34.30;53.80;;;;;;4956375;28;20608;-77
2022/08/05 12:18:57;;;;;;;3.13;2.00;;;34.10;54.00;;;;;;4957639;28;20039;-73
2022/08/05 12:21:29;;;;;;;3.05;1.98;;;33.80;54.00;;;;;;4956979;28;20039;-74
2022/08/05 12:24:01;;;;;;;3.33;1.90;;;33.60;54.60;;;;;;4957074;28;20095;-74
2022/08/05 12:26:43;;;;;;;2.78;1.83;;;33.80;55.50;;;;;;4956307;28;20146;-74
2022/08/05 12:29:26;;;;;;;3.15;1.90;;;34.10;54.30;;;;;;4957982;28;20035;-74
2022/08/05 12:31:53;;;;;;;4.03;1.90;;;34.30;53.80;;;;;;4963752;28;20039;-73
2022/08/05 12:34:22;;;;;;;2.80;1.80;;;34.30;53.40;;;;;;4963838;28;20062;-74
2022/08/05 12:36:49;;;;;;;2.65;2.10;;;34.60;53.00;;;;;;4971986;28;20060;-74
2022/08/05 12:39:16;;;;;;;2.15;1.80;;;34.50;52.80;;;;;;4956572;28;20031;-74
2022/08/05 12:41:41;;;;;;;4.43;2.08;;;34.50;53.30;;;;;;4957019;28;20120;-74
2022/08/05 12:44:12;;;;;;;2.72;1.95;;;34.60;54.30;;;;;;4956327;28;20118;-74
2022/08/05 12:46:40;;;;;;;2.17;1.83;;;35.10;52.50;;;;;;4957351;28;20495;-72
2022/08/05 12:49:13;;;;;;;3.13;1.80;;;35.20;52.00;;;;;;4957024;28;20032;-74
2022/08/05 12:51:58;;;;;;;4.07;1.90;;;35.00;52.40;;;;;;4955452;28;20051;-74
2022/08/05 12:54:27;;;;;;;4.50;2.20;;;34.90;53.60;;;;;;4948069;28;20042;-73
2022/08/05 12:56:58;;;;;;;3.03;1.90;;;35.30;54.10;;;;;;4958345;28;20113;-73
2022/08/05 12:59:27;;;;;;;2.33;1.77;;;35.40;52.30;;;;;;4954466;28;20526;-74
2022/08/05 13:02:06;;;;;;;2.45;1.88;;;34.60;52.00;;;;;;4950579;28;20498;-74
2022/08/05 13:04:34;;;;;;;3.33;1.92;;;34.20;53.20;;;;;;4952569;28;20043;-73
2022/08/05 13:07:03;;;;;;;2.10;1.90;;;34.40;52.30;;;;;;4967217;28;20038;-72
2022/08/05 13:09:29;;;;;;;4.65;2.00;;;34.80;52.00;;;;;;4956401;28;20095;-72
2022/08/05 13:12:03;;;;;;;5.80;2.17;;;35.40;51.80;;;;;;4972474;28;20121;-79
2022/08/05 13:14:33;;;;;;;2.20;1.90;;;35.90;50.90;;;;;;4945360;28;20034;-75
2022/08/05 13:16:59;;;;;;;2.10;1.95;;;36.10;50.30;;;;;;4967740;28;20486;-71
2022/08/05 13:19:26;;;;;;;2.80;2.10;;;36.20;51.60;;;;;;4963746;28;20091;-75
2022/08/05 13:21:53;;;;;;;3.08;2.05;;;36.40;50.00;;;;;;4966337;28;20043;-73
2022/08/05 13:24:21;;;;;;;2.45;1.95;;;36.80;50.70;;;;;;4949163;28;20054;-73
2022/08/05 13:26:47;;;;;;;2.97;1.80;;;36.50;48.80;;;;;;4954123;28;20028;-73
2022/08/05 13:29:13;;;;;;;4.35;2.03;;;36.80;49.40;;;;;;4955062;28;20027;-73
2022/08/05 13:31:41;;;;;;;2.50;1.70;;;36.60;48.50;;;;;;4956472;28;20106;-73
2022/08/05 13:34:07;;;;;;;2.63;2.22;;;36.70;48.70;;;;;;4955976;28;20051;-71
2022/08/05 13:36:33;;;;;;;2.53;1.92;;;37.30;48.20;;;;;;4956388;28;20060;-71
2022/08/05 13:39:01;;;;;;;2.67;1.95;;;37.50;48.50;;;;;;4956405;28;20032;-71
2022/08/05 13:41:27;;;;;;;3.13;1.80;;;38.00;48.30;;;;;;4936891;28;20040;-71
2022/08/05 13:43:52;;;;;;;4.28;1.92;;;38.60;46.80;;;;;;4936556;28;20036;-72
2022/08/05 13:46:18;;;;;;;3.92;1.83;;;38.90;46.20;;;;;;4936653;28;20036;-72
2022/08/05 13:48:44;;;;;;;2.40;2.05;;;39.50;47.00;;;;;;4937016;28;20040;-71
2022/08/05 13:51:14;;;;;;;2.25;1.73;;;39.90;45.50;;;;;;4937167;28;20036;-71
2022/08/05 13:53:41;;;;;;;4.93;1.83;;;39.30;45.20;;;;;;4936589;28;20067;-71
2022/08/05 13:56:08;;;;;;;2.55;2.28;;;38.90;46.80;;;;;;4936483;28;20036;-71
2022/08/05 13:58:34;;;;;;;4.32;2.00;;;39.20;45.60;;;;;;4937074;28;20036;-71
2022/08/05 14:01:00;;;;;;;3.70;2.15;;;39.00;47.10;;;;;;4936656;28;20043;-71
2022/08/05 14:03:26;;;;;;;3.97;2.42;;;38.80;47.10;;;;;;4936656;28;20036;-71
2022/08/05 14:05:53;;;;;;;3.92;2.35;;;38.60;47.50;;;;;;4936626;28;20032;-71
2022/08/05 14:08:18;;;;;;;5.10;2.30;;;38.10;48.90;;;;;;4936652;28;20036;-71
2022/08/05 14:10:44;;;;;;;2.45;2.13;;;36.90;51.10;;;;;;4936876;28;20486;-71
2022/08/05 14:13:09;;;;;;;4.32;2.35;;;37.30;50.50;;;;;;4936144;28;20111;-71
2022/08/05 14:15:35;;;;;;;2.70;2.50;;;37.10;50.50;;;;;;4935044;29;20486;-71
2022/08/05 14:18:01;;;;;;;4.20;2.65;;;37.20;50.90;;;;;;4936597;28;20072;-71
2022/08/05 14:20:28;;;;;;;5.82;2.50;;;37.10;50.80;;;;;;4937164;28;20059;-71
2022/08/05 14:22:54;;;;;;;2.92;2.60;;;36.80;51.80;;;;;;4939704;28;20517;-71
2022/08/05 14:25:20;;;;;;;2.85;2.15;;;36.00;53.10;;;;;;4939114;28;20051;-71
2022/08/05 14:27:48;;;;;;;4.57;2.63;;;35.90;53.40;;;;;;4940044;28;20032;-71
2022/08/05 14:30:14;;;;;;;3.50;2.60;;;36.10;53.10;;;;;;4939919;28;20035;-71
2022/08/05 14:32:39;;;;;;;3.17;2.50;;;36.70;52.70;;;;;;4939994;28;20036;-71
2022/08/05 14:35:05;;;;;;;4.10;2.65;;;37.20;52.50;;;;;;4939382;28;20071;-71
2022/08/05 14:37:31;;;;;;;4.70;2.70;;;37.20;51.60;;;;;;4939650;28;20043;-71
2022/08/05 14:39:56;;;;;;;4.60;2.50;;;37.10;52.20;;;;;;4939546;28;20414;-71
2022/08/05 14:42:22;;;;;;;2.60;2.40;;;37.50;51.40;;;;;;4938096;28;20055;-71
2022/08/05 14:44:48;;;;;;;4.57;2.83;;;36.40;53.20;;;;;;4939667;28;20528;-71
2022/08/05 14:47:13;;;;;;;5.13;3.00;;;36.20;53.80;;;;;;4939600;28;20047;-71
2022/08/05 14:49:39;;;;;;;4.05;2.80;;;36.50;53.30;;;;;;4939751;28;20454;-71
2022/08/05 14:52:04;;;;;;;5.25;2.70;;;36.80;53.50;;;;;;4939459;28;20040;-71
2022/08/05 14:54:30;;;;;;;4.00;2.80;;;36.60;53.20;;;;;;4938991;28;20363;-71
2022/08/05 14:56:56;;;;;;;5.93;2.50;;;36.20;53.70;;;;;;4939403;28;20554;-71
2022/08/05 14:59:22;;;;;;;4.28;2.75;;;35.60;55.10;;;;;;4939204;28;20553;-71
2022/08/05 15:01:48;;;;;;;4.15;2.63;;;35.10;55.00;;;;;;4939416;28;20040;-71
2022/08/05 15:04:13;;;;;;;2.90;2.70;;;34.50;56.20;;;;;;4937621;28;20036;-71
2022/08/05 15:06:39;;;;;;;3.67;2.55;;;33.80;57.30;;;;;;4939329;28;20055;-71
2022/08/05 15:09:04;;;;;;;2.85;2.55;;;33.00;58.80;;;;;;4938903;28;20040;-71
2022/08/05 15:11:31;;;;;;;3.05;2.70;;;32.90;59.30;;;;;;4939252;28;20044;-71
2022/08/05 15:13:57;;;;;;;3.22;2.85;;;32.50;60.70;;;;;;4938488;28;20087;-71
2022/08/05 15:16:22;;;;;;;4.10;2.90;;;32.00;62.60;;;;;;4939066;28;20546;-71
2022/08/05 15:18:48;;;;;;;4.00;2.72;;;31.50;63.90;;;;;;4939039;28;20048;-71
2022/08/05 15:21:13;;;;;;;3.60;2.78;;;31.40;65.00;;;;;;4939112;28;20044;-71
2022/08/05 15:23:39;;;;;;;5.07;3.00;;;31.50;64.70;;;;;;4938669;28;20534;-71
2022/08/05 15:26:05;;;;;;;4.85;3.00;;;31.60;64.50;;;;;;4938941;28;20088;-71
2022/08/05 15:28:30;;;;;;;3.53;2.72;;;31.80;63.50;;;;;;4938824;28;20511;-71
2022/08/05 15:30:56;;;;;;;4.68;2.70;;;32.00;63.50;;;;;;4938925;28;20043;-71
2022/08/05 15:33:22;;;;;;;2.85;2.55;;;31.90;63.00;;;;;;4938597;28;20054;-71
2022/08/05 15:35:47;;;;;;;2.80;2.60;;;31.80;64.10;;;;;;4938762;28;20061;-71
2022/08/05 15:38:13;;;;;;;4.97;3.35;;;31.90;64.60;;;;;;4939064;28;20044;-71
2022/08/05 15:40:38;;;;;;;3.20;2.60;;;31.80;64.40;;;;;;4938560;28;20044;-71
2022/08/05 15:43:04;;;;;;;4.97;2.70;;;31.60;64.70;;;;;;4938628;28;20043;-71
2022/08/05 15:45:29;;;;;;;3.35;2.97;;;31.50;65.10;;;;;;4938447;28;20047;-71
2022/08/05 15:47:55;;;;;;;4.55;2.67;;;31.50;65.10;;;;;;4938755;28;20462;-71
2022/08/05 15:50:20;;;;;;;3.70;2.50;;;31.20;65.40;;;;;;4938616;28;20047;-71
2022/08/05 15:52:46;;;;;;;3.95;2.80;;;31.00;65.30;;;;;;4938664;28;20040;-71
2022/08/05 15:55:12;;;;;;;6.43;4.07;;;30.80;65.50;;;;;;4938053;28;20119;-71
2022/08/05 15:57:39;;;;;;;3.58;2.85;;;30.60;65.90;;;;;;4938694;28;20044;-71
2022/08/05 16:00:06;;;;;;;4.78;3.15;;;30.50;65.90;;;;;;4938509;28;20526;-71
2022/08/05 16:02:32;;;;;;;2.92;2.70;;;30.20;66.40;;;;;;4938519;28;20119;-71
2022/08/05 16:04:57;;;;;;;3.53;2.65;;;30.90;65.60;;;;;;4938288;28;20107;-71
2022/08/05 16:07:23;;;;;;;4.28;2.63;;;30.80;64.70;;;;;;4938348;28;20040;-71
2022/08/05 16:09:48;;;;;;;2.60;2.40;;;30.50;65.70;;;;;;4938018;28;20028;-71
2022/08/05 16:12:15;;;;;;;4.22;2.78;;;30.40;66.50;;;;;;4937749;28;20054;-71
2022/08/05 16:14:41;;;;;;;3.03;2.60;;;30.10;67.80;;;;;;4937733;28;20048;-72
2022/08/05 16:17:07;;;;;;;4.00;2.80;;;29.50;69.00;;;;;;4937808;28;20136;-72
2022/08/05 16:19:32;;;;;;;3.85;2.30;;;29.50;69.00;;;;;;4937938;28;20062;-72
2022/08/05 16:21:58;;;;;;;4.95;2.90;;;29.50;69.10;;;;;;4937785;28;20036;-71
2022/08/05 16:24:24;;;;;;;3.70;2.72;;;29.40;69.10;;;;;;4937579;28;20036;-72
2022/08/05 16:26:50;;;;;;;6.97;4.18;;;29.40;69.30;;;;;;4938078;28;20075;-72
2022/08/05 16:29:17;;;;;;;3.13;2.72;;;29.30;69.80;;;;;;4937896;28;20107;-72
2022/08/05 16:31:42;;;;;;;4.72;2.85;;;29.50;69.30;;;;;;4937934;28;20035;-72
2022/08/05 16:34:08;;;;;;;4.32;2.72;;;29.60;69.90;;;;;;4937295;28;20043;-72
2022/08/05 16:36:33;;;;;;;5.15;2.72;;;29.50;69.70;;;;;;4936401;29;20036;-72
2022/08/05 16:38:59;;;;;;;5.60;2.90;;;29.20;70.00;;;;;;4937916;28;20044;-72
2022/08/05 16:41:24;;;;;;;3.85;2.45;;;29.10;71.00;;;;;;4937835;28;20036;-72
2022/08/05 16:43:50;;;;;;;4.10;2.67;;;28.80;71.00;;;;;;4937127;28;20463;-72
2022/08/05 16:46:15;;;;;;;3.22;2.67;;;28.70;71.70;;;;;;4937592;28;20046;-72
2022/08/05 16:48:41;;;;;;;3.22;2.58;;;28.60;72.10;;;;;;4937767;28;20386;-72
2022/08/05 16:51:07;;;;;;;5.10;2.45;;;28.60;72.10;;;;;;4937719;28;20395;-72
2022/08/05 16:53:32;;;;;;;3.70;2.60;;;28.70;72.20;;;;;;4937334;28;20042;-72
2022/08/05 16:55:58;;;;;;;3.28;2.50;;;28.60;71.60;;;;;;4937322;28;20040;-72